Time;durP1;ratioP1;P1;durP2;ratioP2;P2;SDS_P1;SDS_P2;PMS_P1;PMS_P2;Temp;Humidity;BMP_temperature;BMP_pressure;BME280_temperature;BME280_humidity;BME280_pressure;Samples;Min_cycle;Max_cycle;Signal;HPM_P1;HPM_P2
2022/10/17 00:01:03;;;;;;;14.30;11.95;;;;;;;22.36;59.77;102148.13;5157595;27;20366;-79
2022/10/17 00:03:32;;;;;;;12.98;11.60;;;;;;;22.35;59.71;102149.13;5157039;27;20038;-79
2022/10/17 00:06:04;;;;;;;13.60;12.30;;;;;;;22.36;59.63;102150.84;5137873;27;20055;-80
2022/10/17 00:08:32;;;;;;;16.05;10.57;;;;;;;22.36;59.85;102158.94;5157122;27;20053;-80
2022/10/17 00:11:11;;;;;;;13.18;11.20;;;;;;;22.35;59.59;102154.53;5156329;27;20043;-80
2022/10/17 00:13:39;;;;;;;13.95;11.38;;;;;;;22.36;59.59;102153.53;5157199;27;20047;-80
2022/10/17 00:16:07;;;;;;;12.23;10.93;;;;;;;22.35;59.70;102160.78;5156336;27;20409;-80
2022/10/17 00:18:34;;;;;;;11.93;10.43;;;;;;;22.35;59.65;102160.78;5142163;27;20047;-80
2022/10/17 00:21:01;;;;;;;14.05;11.43;;;;;;;22.34;59.49;102164.47;5161123;27;20043;-80
2022/10/17 00:23:29;;;;;;;13.35;11.95;;;;;;;22.35;59.58;102165.31;5140949;27;20059;-79
2022/10/17 00:26:00;;;;;;;13.65;12.25;;;;;;;22.35;59.55;102168.00;5160822;27;20390;-80
2022/10/17 00:28:28;;;;;;;15.25;11.43;;;;;;;22.36;59.64;102169.72;5161050;27;20042;-80
2022/10/17 00:31:03;;;;;;;13.85;11.63;;;;;;;22.35;59.58;102165.31;5141652;27;20046;-80
2022/10/17 00:33:32;;;;;;;11.60;10.50;;;;;;;22.34;59.47;102167.16;5161143;27;20046;-81
2022/10/17 00:36:02;;;;;;;14.23;11.38;;;;;;;22.34;59.58;102175.25;5141461;27;20058;-81
2022/10/17 00:38:29;;;;;;;11.65;10.30;;;;;;;22.34;59.48;102177.94;5140977;27;20081;-80
2022/10/17 00:40:57;;;;;;;11.63;10.50;;;;;;;22.34;59.41;102177.09;5160023;27;20050;-80
2022/10/17 00:43:25;;;;;;;12.15;10.95;;;;;;;22.33;59.50;102173.53;5160688;27;20050;-80
2022/10/17 00:45:52;;;;;;;12.40;11.20;;;;;;;22.34;59.35;102169.00;5160990;27;20047;-80
2022/10/17 00:48:21;;;;;;;12.68;11.48;;;;;;;22.32;59.43;102171.84;5140834;27;20051;-80
2022/10/17 00:50:49;;;;;;;12.43;11.20;;;;;;;22.32;59.46;102173.63;5140334;27;20047;-80
2022/10/17 00:53:17;;;;;;;14.00;12.70;;;;;;;22.33;59.38;102170.84;5140528;27;20057;-80
2022/10/17 00:55:50;;;;;;;12.10;10.95;;;;;;;22.33;59.42;102173.53;5140491;27;20046;-80
2022/10/17 00:58:18;;;;;;;12.52;10.45;;;;;;;22.31;59.44;102171.94;5123779;27;20058;-80
2022/10/17 01:00:47;;;;;;;12.35;10.85;;;;;;;22.32;59.30;102181.72;5140607;27;20055;-81
2022/10/17 01:03:15;;;;;;;12.77;11.55;;;;;;;22.32;59.40;102165.53;5140996;27;20053;-80
2022/10/17 01:05:43;;;;;;;13.55;12.20;;;;;;;22.32;59.34;102177.22;5159966;27;20055;-80
2022/10/17 01:08:11;;;;;;;12.57;11.35;;;;;;;22.32;59.15;102165.53;5140391;27;20039;-81
2022/10/17 01:10:45;;;;;;;12.70;11.43;;;;;;;22.31;59.39;102164.69;5140903;27;20058;-80
2022/10/17 01:13:24;;;;;;;12.95;11.32;;;;;;;22.31;59.16;102172.78;5159356;27;20054;-81
2022/10/17 01:16:01;;;;;;;14.32;11.60;;;;;;;22.33;59.11;102168.16;5140952;27;20046;-81
2022/10/17 01:18:41;;;;;;;12.00;10.73;;;;;;;22.31;59.22;102172.78;5160086;27;20043;-81
2022/10/17 01:21:33;;;;;;;13.13;11.43;;;;;;;22.32;59.30;102173.63;5139943;27;20489;-81
2022/10/17 01:24:31;;;;;;;13.55;12.23;;;;;;;22.30;59.14;102173.78;5160086;27;20043;-81
2022/10/17 01:27:28;;;;;;;13.00;11.63;;;;;;;22.31;59.01;102175.47;5159007;27;20043;-81
2022/10/17 01:30:17;;;;;;;12.65;11.32;;;;;;;22.30;59.21;102181.88;5139820;27;20046;-80
2022/10/17 01:32:54;;;;;;;13.00;11.68;;;;;;;22.30;59.11;102181.00;5140557;27;20049;-80
2022/10/17 01:35:32;;;;;;;12.32;11.13;;;;;;;22.31;59.08;102180.03;5139524;27;20043;-80
2022/10/17 01:38:19;;;;;;;13.40;11.25;;;;;;;22.29;59.05;102182.00;5139479;27;20053;-80
2022/10/17 01:41:06;;;;;;;12.75;11.52;;;;;;;22.29;59.16;102169.34;5139588;27;20047;-80
2022/10/17 01:43:40;;;;;;;12.25;11.00;;;;;;;22.29;59.10;102177.44;5159302;27;20053;-81
2022/10/17 01:46:20;;;;;;;12.60;11.30;;;;;;;22.29;59.03;102171.19;5139677;27;20061;-81
2022/10/17 01:48:48;;;;;;;13.73;11.38;;;;;;;22.29;59.12;102166.66;5139466;27;20058;-81
2022/10/17 01:51:21;;;;;;;11.32;10.23;;;;;;;22.29;59.03;102165.81;5139233;27;20051;-80
2022/10/17 01:53:55;;;;;;;12.15;10.93;;;;;;;22.29;58.96;102163.09;5139477;27;20402;-80
2022/10/17 01:56:27;;;;;;;12.27;10.98;;;;;;;22.29;58.99;102165.81;5139409;27;20054;-80
2022/10/17 01:59:05;;;;;;;12.65;11.35;;;;;;;22.29;59.07;102157.72;5139343;27;20505;-80
2022/10/17 02:01:35;;;;;;;14.88;12.02;;;;;;;22.30;58.97;102164.81;5139526;27;20046;-80
2022/10/17 02:04:06;;;;;;;12.38;10.88;;;;;;;22.29;59.15;102152.31;5139772;27;20050;-81
2022/10/17 02:06:35;;;;;;;11.80;10.65;;;;;;;22.28;58.86;102158.66;5157959;27;20043;-80
2022/10/17 02:09:23;;;;;;;12.80;11.13;;;;;;;22.28;59.00;102155.97;5139687;27;20077;-81
2022/10/17 02:12:15;;;;;;;12.57;11.15;;;;;;;22.28;58.82;102147.88;5122205;27;20505;-81
2022/10/17 02:15:07;;;;;;;12.23;10.95;;;;;;;22.27;58.82;102156.97;5138928;27;20050;-81
2022/10/17 02:18:09;;;;;;;11.98;10.70;;;;;;;22.28;58.74;102147.88;5140103;27;20047;-80
2022/10/17 02:20:47;;;;;;;12.73;11.45;;;;;;;22.28;58.86;102145.19;5139101;27;20054;-80
2022/10/17 02:23:32;;;;;;;11.38;10.18;;;;;;;22.27;58.76;102148.88;5158245;27;20050;-80
2022/10/17 02:26:11;;;;;;;11.25;10.05;;;;;;;22.28;58.71;102150.56;5122254;27;20050;-80
2022/10/17 02:28:50;;;;;;;13.25;10.30;;;;;;;22.28;58.67;102150.56;5138928;27;20054;-81
2022/10/17 02:31:44;;;;;;;11.45;10.32;;;;;;;22.27;58.78;102152.41;5138969;27;20055;-81
2022/10/17 02:34:32;;;;;;;11.90;10.55;;;;;;;22.28;58.72;102145.19;5138795;27;20058;-81
2022/10/17 02:37:04;;;;;;;12.50;10.93;;;;;;;22.26;58.63;102139.91;5138748;27;20050;-80
2022/10/17 02:39:34;;;;;;;12.20;10.98;;;;;;;22.27;58.68;102146.16;5137718;27;20042;-80
2022/10/17 02:42:06;;;;;;;12.40;11.20;;;;;;;22.26;58.66;102148.00;5158554;27;20492;-80
2022/10/17 02:44:38;;;;;;;11.63;10.50;;;;;;;22.26;58.55;102145.31;5138747;27;20053;-80
2022/10/17 02:47:26;;;;;;;12.65;11.45;;;;;;;22.26;58.59;102148.00;5138336;27;20046;-80
2022/10/17 02:49:57;;;;;;;11.43;10.23;;;;;;;22.26;58.71;102147.16;5138728;27;20057;-81
2022/10/17 02:52:44;;;;;;;12.93;11.63;;;;;;;22.25;58.63;102142.75;5158596;27;20051;-81
2022/10/17 02:55:19;;;;;;;11.80;10.60;;;;;;;22.25;58.62;102145.44;5138827;27;20046;-81
2022/10/17 02:57:55;;;;;;;10.07;9.18;;;;;;;22.25;58.56;102153.53;5138675;27;20497;-79
2022/10/17 03:00:25;;;;;;;10.55;9.52;;;;;;;22.25;58.45;102150.84;5138265;27;20059;-80
2022/10/17 03:02:53;;;;;;;12.10;10.98;;;;;;;22.26;58.59;102156.09;5138739;27;20051;-80
2022/10/17 03:05:28;;;;;;;11.63;10.52;;;;;;;22.24;58.52;102149.97;5157329;27;20054;-80
2022/10/17 03:07:56;;;;;;;11.60;10.40;;;;;;;22.25;58.27;102167.03;5121894;27;20409;-80
2022/10/17 03:10:24;;;;;;;11.77;10.68;;;;;;;22.26;58.44;102166.03;5137891;27;20047;-80
2022/10/17 03:12:51;;;;;;;12.18;10.82;;;;;;;22.25;58.45;102172.41;5138003;27;20057;-80
2022/10/17 03:15:19;;;;;;;11.73;10.55;;;;;;;22.24;58.41;102176.06;5137852;27;20047;-79
2022/10/17 03:17:47;;;;;;;12.10;10.82;;;;;;;22.25;58.30;102180.50;5137743;27;20516;-80
2022/10/17 03:20:16;;;;;;;11.73;10.70;;;;;;;22.25;58.46;102177.81;5138304;27;20051;-81
2022/10/17 03:22:44;;;;;;;12.77;11.25;;;;;;;22.25;58.33;102177.81;5138676;27;20089;-81
2022/10/17 03:25:12;;;;;;;11.40;10.30;;;;;;;22.24;58.42;102176.06;5138317;27;20047;-81
2022/10/17 03:27:39;;;;;;;11.85;10.73;;;;;;;22.25;58.42;102185.91;5138382;27;20054;-81
2022/10/17 03:30:08;;;;;;;14.95;11.65;;;;;;;22.23;58.27;102183.31;5138343;27;20386;-81
2022/10/17 03:32:35;;;;;;;11.07;9.98;;;;;;;22.25;58.29;102191.31;5138547;27;20047;-80
2022/10/17 03:35:03;;;;;;;11.63;10.52;;;;;;;22.24;58.38;102189.56;5156836;27;20050;-82
2022/10/17 03:37:30;;;;;;;11.38;10.23;;;;;;;22.24;58.36;102197.66;5137842;27;20050;-80
2022/10/17 03:39:58;;;;;;;13.98;11.50;;;;;;;22.24;58.30;102200.34;5137859;27;20062;-81
2022/10/17 03:42:26;;;;;;;10.82;9.82;;;;;;;22.23;58.32;102198.63;5138388;27;20115;-81
2022/10/17 03:44:53;;;;;;;11.57;10.45;;;;;;;22.23;58.24;102204.88;5137760;27;20058;-79
2022/10/17 03:47:21;;;;;;;11.40;10.30;;;;;;;22.23;58.28;102201.34;5156556;27;20042;-80
2022/10/17 03:49:52;;;;;;;10.30;9.30;;;;;;;22.24;58.24;102200.34;5137340;27;20057;-80
2022/10/17 03:52:20;;;;;;;11.57;10.43;;;;;;;22.24;58.31;102201.25;5141845;27;20132;-80
2022/10/17 03:54:49;;;;;;;11.45;10.27;;;;;;;22.23;58.40;102201.34;5142381;27;20057;-81
2022/10/17 03:57:18;;;;;;;10.70;9.70;;;;;;;22.24;58.39;102216.53;5142322;27;20046;-80
2022/10/17 03:59:46;;;;;;;10.98;9.98;;;;;;;22.23;58.39;102206.72;5142412;27;20054;-81
2022/10/17 04:02:17;;;;;;;10.25;9.25;;;;;;;22.22;58.39;102211.28;5141607;27;20062;-80
2022/10/17 04:04:45;;;;;;;12.10;10.80;;;;;;;22.22;58.25;102213.97;5141807;27;20061;-81
2022/10/17 04:07:12;;;;;;;11.10;10.07;;;;;;;22.22;58.35;102219.38;5161459;27;20042;-80
2022/10/17 04:09:43;;;;;;;10.70;9.68;;;;;;;22.22;58.30;102224.75;5124669;27;20054;-80
2022/10/17 04:12:15;;;;;;;11.67;10.53;;;;;;;22.22;58.42;102224.75;5141417;27;20077;-80
2022/10/17 04:14:43;;;;;;;11.48;10.27;;;;;;;22.23;58.23;102226.47;5142053;27;20050;-81
2022/10/17 04:17:10;;;;;;;11.75;10.65;;;;;;;22.23;58.34;102220.22;5141838;27;20405;-81
2022/10/17 04:19:38;;;;;;;13.73;11.43;;;;;;;22.21;58.26;102232.00;5141889;27;20051;-82
2022/10/17 04:22:07;;;;;;;10.75;9.57;;;;;;;22.21;58.15;102226.59;5142322;27;20050;-82
2022/10/17 04:24:37;;;;;;;13.55;10.60;;;;;;;22.23;58.13;102231.88;5141449;27;20522;-82
2022/10/17 04:27:10;;;;;;;10.20;9.20;;;;;;;22.21;58.17;102221.19;5142384;27;20043;-81
2022/10/17 04:29:42;;;;;;;11.55;10.35;;;;;;;22.20;58.22;102222.19;5141006;27;20054;-81
2022/10/17 04:32:16;;;;;;;11.45;10.23;;;;;;;22.21;58.12;102228.44;5141677;27;20058;-80
2022/10/17 04:35:04;;;;;;;11.45;10.35;;;;;;;22.21;58.20;102234.69;5159123;27;20061;-81
2022/10/17 04:37:31;;;;;;;10.38;9.43;;;;;;;22.21;58.23;102237.38;5141705;27;20047;-81
2022/10/17 04:40:02;;;;;;;10.65;9.63;;;;;;;22.21;58.22;102242.78;5140845;27;20051;-80
2022/10/17 04:42:32;;;;;;;11.10;10.10;;;;;;;22.20;58.15;102248.28;5140623;27;20485;-80
2022/10/17 04:44:59;;;;;;;10.05;9.02;;;;;;;22.20;58.11;102251.84;5140739;27;20065;-80
2022/10/17 04:47:27;;;;;;;12.23;10.93;;;;;;;22.19;58.16;102247.41;5140929;27;20053;-81
2022/10/17 04:49:55;;;;;;;10.55;9.45;;;;;;;22.20;58.23;102251.84;5141070;27;20413;-81
2022/10/17 04:52:23;;;;;;;11.20;10.10;;;;;;;22.19;58.05;102254.66;5141314;27;20058;-81
2022/10/17 04:54:52;;;;;;;12.10;10.85;;;;;;;22.19;58.14;102255.50;5140759;27;20420;-81
2022/10/17 04:57:20;;;;;;;11.45;10.00;;;;;;;22.20;58.10;102253.66;5140118;27;20074;-81
2022/10/17 05:00:09;;;;;;;10.88;9.85;;;;;;;22.19;57.96;102258.22;5143719;27;20050;-81
2022/10/17 05:02:56;;;;;;;12.90;10.15;;;;;;;22.20;58.05;102269.84;5139800;27;20046;-81
2022/10/17 05:05:23;;;;;;;13.95;10.27;;;;;;;22.18;58.06;102259.19;5140204;27;20061;-80
2022/10/17 05:07:53;;;;;;;11.07;9.95;;;;;;;22.18;58.03;102266.44;5159125;27;20045;-82
2022/10/17 05:10:24;;;;;;;11.57;10.55;;;;;;;22.18;57.96;102266.44;5140907;27;20517;-82
2022/10/17 05:12:53;;;;;;;11.73;10.52;;;;;;;22.19;57.97;102270.84;5140769;27;20054;-81
2022/10/17 05:15:23;;;;;;;11.35;9.80;;;;;;;22.19;58.03;102276.22;5140473;27;20042;-81
2022/10/17 05:17:56;;;;;;;10.95;9.77;;;;;;;22.18;57.97;102282.63;5140698;27;20046;-80
2022/10/17 05:20:25;;;;;;;;;;;;;;;22.17;57.87;102281.75;5141223;27;20050;-81
2022/10/17 05:22:53;;;;;;;11.48;9.68;;;;;;;22.18;57.86;102282.63;5140191;27;19933;-81
2022/10/17 05:25:20;;;;;;;10.75;9.63;;;;;;;22.18;57.96;102291.56;5139868;27;20050;-81
2022/10/17 05:27:49;;;;;;;11.38;10.27;;;;;;;22.17;57.93;102286.28;5123012;27;20225;-79
2022/10/17 05:30:17;;;;;;;11.75;10.48;;;;;;;22.17;57.93;102289.00;5140271;27;20058;-81
2022/10/17 05:32:45;;;;;;;11.35;9.80;;;;;;;22.16;57.83;102285.44;5141118;27;20051;-80
2022/10/17 05:35:12;;;;;;;14.63;9.95;;;;;;;22.16;57.81;102296.22;5140442;27;20051;-80
2022/10/17 05:37:40;;;;;;;11.98;10.80;;;;;;;22.16;57.84;102298.94;5159984;27;20046;-81
2022/10/17 05:40:09;;;;;;;10.82;9.60;;;;;;;22.17;57.92;102306.03;5123133;27;20533;-81
2022/10/17 05:42:37;;;;;;;11.60;10.43;;;;;;;22.17;57.87;102307.88;5139371;27;20051;-80
2022/10/17 05:45:10;;;;;;;11.00;9.90;;;;;;;22.17;57.76;102310.56;5139626;27;20051;-81
2022/10/17 05:47:37;;;;;;;11.50;10.30;;;;;;;22.16;57.75;102306.13;5159196;27;20073;-81
2022/10/17 05:50:07;;;;;;;11.13;10.02;;;;;;;22.15;57.79;102310.66;5139136;27;20076;-80
2022/10/17 05:52:54;;;;;;;11.10;10.00;;;;;;;22.16;57.78;102319.63;5139573;27;20399;-81
2022/10/17 05:55:22;;;;;;;12.75;9.48;;;;;;;22.15;57.76;102318.75;5139422;27;20495;-81
2022/10/17 05:57:52;;;;;;;11.05;9.85;;;;;;;22.15;57.78;102326.84;5138999;27;20042;-80
2022/10/17 06:00:21;;;;;;;11.23;10.23;;;;;;;22.15;57.81;102334.09;5138994;27;20049;-81
2022/10/17 06:02:55;;;;;;;11.95;10.85;;;;;;;22.16;57.76;102336.69;5139640;27;20050;-80
2022/10/17 06:05:23;;;;;;;12.23;10.10;;;;;;;22.15;57.78;102334.94;5121916;27;20046;-81
2022/10/17 06:07:52;;;;;;;11.65;10.35;;;;;;;22.15;57.68;102343.03;5139758;27;20070;-80
2022/10/17 06:10:24;;;;;;;11.35;9.75;;;;;;;22.15;57.55;102347.56;5139055;27;20402;-81
2022/10/17 06:12:53;;;;;;;10.27;9.27;;;;;;;22.14;57.67;102352.09;5122295;27;20043;-81
2022/10/17 06:15:20;;;;;;;11.60;10.40;;;;;;;22.14;57.57;102352.09;5121836;27;20062;-80
2022/10/17 06:17:54;;;;;;;11.65;10.23;;;;;;;22.15;57.69;102344.88;5139092;27;20050;-80
2022/10/17 06:20:22;;;;;;;13.23;10.85;;;;;;;22.13;57.68;102352.22;5157978;27;20053;-80
2022/10/17 06:22:49;;;;;;;11.30;9.82;;;;;;;22.14;57.70;102353.94;5139289;27;20046;-81
2022/10/17 06:25:26;;;;;;;11.20;10.00;;;;;;;22.14;57.68;102351.25;5139374;27;20055;-81
2022/10/17 06:27:53;;;;;;;10.90;9.35;;;;;;;22.13;57.74;102350.41;5139249;27;20046;-81
2022/10/17 06:30:22;;;;;;;11.30;10.20;;;;;;;22.14;57.80;102364.75;5139057;27;20054;-81
2022/10/17 06:32:50;;;;;;;12.05;10.27;;;;;;;22.15;57.76;102371.84;5157336;27;20050;-80
2022/10/17 06:35:18;;;;;;;11.77;9.82;;;;;;;22.14;57.81;102370.13;5158319;27;20047;-80
2022/10/17 06:37:46;;;;;;;17.38;13.77;;;;;;;22.13;57.31;102374.66;5139163;27;20047;-81
2022/10/17 06:40:15;;;;;;;20.30;16.90;;;;;;;22.12;56.71;102378.31;5121786;27;20413;-80
2022/10/17 06:42:43;;;;;;;20.67;18.52;;;;;;;22.06;55.42;102389.53;5138386;27;20047;-80
2022/10/17 06:45:45;;;;;;;25.20;20.48;;;;;;;22.01;54.90;102388.16;5093764;28;20503;-81
2022/10/17 06:48:38;;;;;;;22.67;19.80;;;;;;;21.95;54.81;102395.69;5089600;28;20094;-81
2022/10/17 06:51:28;;;;;;;21.88;18.25;;;;;;;21.90;55.37;102387.09;5076755;28;20059;-80
2022/10/17 06:53:58;;;;;;;21.90;19.02;;;;;;;21.89;55.69;102390.78;5076200;28;20056;-81
2022/10/17 06:57:00;;;;;;;21.80;17.17;;;;;;;21.89;56.24;102400.69;5033638;28;20061;-81
2022/10/17 06:59:48;;;;;;;23.05;17.63;;;;;;;21.87;55.84;102408.88;4974462;28;20058;-80
2022/10/17 07:02:23;;;;;;;22.20;18.10;;;;;;;21.86;55.09;102417.09;4962996;28;20067;-81
2022/10/17 07:04:51;;;;;;;23.67;19.92;;;;;;;21.82;54.88;102419.13;4954128;29;20066;-85
2022/10/17 07:07:19;;;;;;;23.45;20.17;;;;;;;21.80;55.30;102417.53;4939789;29;20054;-89
2022/10/17 07:09:46;;;;;;;28.35;22.38;;;;;;;21.78;55.61;102416.78;4955850;29;20058;-89
2022/10/17 07:12:15;;;;;;;24.50;21.33;;;;;;;21.78;55.65;102422.16;4972449;28;20065;-84
2022/10/17 07:14:46;;;;;;;25.25;20.90;;;;;;;21.78;55.81;102422.16;4974335;28;20509;-85
2022/10/17 07:17:13;;;;;;;24.48;20.13;;;;;;;21.78;56.35;102420.31;4957428;28;20050;-82
2022/10/17 07:19:42;;;;;;;25.38;21.50;;;;;;;21.78;56.60;102416.78;4954772;29;20054;-83
2022/10/17 07:22:12;;;;;;;25.23;20.33;;;;;;;21.78;56.71;102425.72;4984056;28;20054;-83
2022/10/17 07:24:42;;;;;;;27.55;20.83;;;;;;;21.79;56.77;102422.03;4996287;28;20074;-86
2022/10/17 07:27:33;;;;;;;28.10;22.02;;;;;;;21.78;56.79;102422.16;5014252;28;20425;-87
2022/10/17 07:30:01;;;;;;;21.38;18.65;;;;;;;21.77;56.75;102413.22;4997857;28;20065;-86
2022/10/17 07:32:39;;;;;;;25.40;19.60;;;;;;;21.80;56.68;102417.53;5037228;28;20516;-88
2022/10/17 07:35:08;;;;;;;23.35;19.88;;;;;;;21.80;57.05;102407.63;5036199;28;20060;-86
2022/10/17 07:37:37;;;;;;;26.67;20.05;;;;;;;21.81;57.13;102405.78;5094457;28;20058;-83
2022/10/17 07:40:06;;;;;;;20.77;18.05;;;;;;;21.82;57.02;102410.19;5136090;28;20047;-82
2022/10/17 07:42:37;;;;;;;23.23;18.60;;;;;;;21.82;56.98;102415.59;5117588;28;20050;-83
2022/10/17 07:45:06;;;;;;;22.83;19.08;;;;;;;21.84;56.96;102419.91;5117426;28;20059;-82
2022/10/17 07:47:34;;;;;;;23.02;20.63;;;;;;;21.84;56.72;102414.50;5118894;28;20043;-86
2022/10/17 07:50:06;;;;;;;25.00;21.10;;;;;;;21.85;56.71;102423.47;5118025;28;20433;-83
2022/10/17 07:52:33;;;;;;;23.27;19.98;;;;;;;21.85;56.78;102426.16;5136189;28;20409;-83
2022/10/17 07:55:01;;;;;;;25.15;20.33;;;;;;;21.85;56.94;102424.31;5135846;28;20043;-85
2022/10/17 07:57:28;;;;;;;25.55;18.30;;;;;;;21.88;57.11;102428.63;5135962;28;20047;-82
2022/10/17 07:59:55;;;;;;;24.70;19.27;;;;;;;21.89;57.09;102425.81;5117599;28;20054;-81
2022/10/17 08:02:24;;;;;;;26.52;21.20;;;;;;;21.89;57.07;102425.81;5136427;28;20043;-87
2022/10/17 08:04:52;;;;;;;22.63;19.92;;;;;;;21.92;57.23;102427.44;5117727;28;20429;-85
2022/10/17 08:07:20;;;;;;;21.40;19.00;;;;;;;21.92;57.24;102427.44;5136147;28;20040;-84
2022/10/17 08:09:54;;;;;;;29.00;20.48;;;;;;;21.94;57.13;102428.19;5136097;28;20054;-85
2022/10/17 08:12:23;;;;;;;24.58;21.33;;;;;;;21.95;57.25;102432.59;5135618;28;20048;-85
2022/10/17 08:14:50;;;;;;;22.58;19.63;;;;;;;21.97;57.39;102433.38;5100503;28;20498;-87
2022/10/17 08:17:17;;;;;;;23.75;21.15;;;;;;;21.96;57.52;102427.13;5117943;28;20046;-83
2022/10/17 08:19:45;;;;;;;21.73;19.40;;;;;;;21.96;57.56;102429.81;5117076;28;20066;-87
2022/10/17 08:22:14;;;;;;;21.95;19.65;;;;;;;21.99;57.44;102431.41;5117027;28;20058;-87
2022/10/17 08:24:42;;;;;;;23.33;19.50;;;;;;;21.98;57.54;102427.84;5135644;28;20050;-82
2022/10/17 08:27:12;;;;;;;22.95;20.30;;;;;;;22.01;57.52;102421.38;5135673;28;20575;-84
2022/10/17 08:29:39;;;;;;;22.02;18.73;;;;;;;22.03;57.60;102424.81;5135597;28;20046;-86
2022/10/17 08:32:08;;;;;;;29.67;19.67;;;;;;;22.01;57.72;102424.09;5100495;28;20047;-84
2022/10/17 08:34:36;;;;;;;20.58;18.13;;;;;;;22.04;57.75;102421.16;5136451;28;20050;-93
2022/10/17 08:37:03;;;;;;;22.08;18.60;;;;;;;22.04;57.73;102426.56;5116943;28;20047;-85
2022/10/17 08:39:31;;;;;;;22.35;19.77;;;;;;;22.06;57.69;102424.59;5120568;27;20383;-83
2022/10/17 08:42:04;;;;;;;22.70;18.52;;;;;;;22.06;57.86;102423.75;5121404;27;20074;-84
2022/10/17 08:45:02;;;;;;;21.50;18.08;;;;;;;22.07;57.76;102423.63;5140166;27;20051;-90
2022/10/17 08:47:53;;;;;;;22.35;19.17;;;;;;;22.09;57.82;102420.84;5121481;27;20051;-86
2022/10/17 08:50:33;;;;;;;22.80;19.05;;;;;;;22.09;57.87;102420.84;5119972;27;20047;-78
2022/10/17 08:53:07;;;;;;;21.38;18.42;;;;;;;22.12;57.83;102423.28;5120847;27;20047;-84
2022/10/17 08:55:38;;;;;;;20.52;15.25;;;;;;;22.10;57.92;102415.31;5120545;27;20054;-87
2022/10/17 08:58:14;;;;;;;16.70;14.93;;;;;;;22.12;57.95;102418.78;5120188;27;20043;-82
2022/10/17 09:00:52;;;;;;;20.00;16.80;;;;;;;22.14;58.01;102426.78;5138762;27;20046;-88
2022/10/17 09:03:57;;;;;;;24.55;17.35;;;;;;;22.14;57.98;102418.69;5121142;27;20054;-87
2022/10/17 09:06:28;;;;;;;20.02;17.00;;;;;;;22.14;57.97;102419.53;5139542;27;20054;-89
2022/10/17 09:09:03;;;;;;;19.60;16.50;;;;;;;22.16;57.88;102414.03;5139714;27;20065;-88
2022/10/17 09:11:42;;;;;;;22.13;16.88;;;;;;;22.17;57.99;102423.88;5121089;27;20409;-87
2022/10/17 09:14:47;;;;;;;17.83;15.45;;;;;;;22.18;58.08;102428.28;5120945;27;20054;-85
2022/10/17 09:17:20;;;;;;;20.23;16.88;;;;;;;22.19;58.11;102428.16;5120268;27;20047;-80
2022/10/17 09:19:53;;;;;;;;;;;;;;;22.19;58.03;102428.16;5139550;27;20035;-86
2022/10/17 09:22:23;;;;;;;;;;;;;;;22.19;58.11;102420.06;5140117;27;19919;-82
2022/10/17 09:24:59;;;;;;;18.25;15.80;;;;;;;22.21;58.00;102426.22;5138338;27;19919;-80
2022/10/17 09:27:34;;;;;;;23.85;16.55;;;;;;;22.24;57.81;102413.47;5138758;27;20050;-87
2022/10/17 09:30:20;;;;;;;21.38;15.88;;;;;;;22.23;57.99;102431.50;5120311;27;20048;-83
2022/10/17 09:33:23;;;;;;;19.30;15.95;;;;;;;22.23;58.08;102417.16;5137721;27;20043;-83
2022/10/17 09:36:17;;;;;;;19.17;16.10;;;;;;;22.24;57.91;102414.34;5130770;27;20074;-81
2022/10/17 09:38:53;;;;;;;19.00;16.25;;;;;;;22.25;57.99;102416.06;5137296;27;20047;-82
2022/10/17 09:41:32;;;;;;;19.25;16.30;;;;;;;22.25;57.96;102420.59;5101824;27;20497;-83
2022/10/17 09:44:43;;;;;;;19.70;15.30;;;;;;;22.25;57.90;102416.06;5137347;27;20044;-83
2022/10/17 09:47:25;;;;;;;19.23;17.08;;;;;;;22.26;57.75;102419.63;5102089;27;20462;-81
2022/10/17 09:49:53;;;;;;;18.63;16.67;;;;;;;22.27;57.82;102421.34;5138295;27;20043;-84
2022/10/17 09:52:34;;;;;;;16.60;13.52;;;;;;;22.27;57.83;102418.63;5138181;27;20047;-80
2022/10/17 09:55:19;;;;;;;19.23;15.18;;;;;;;22.27;57.82;102407.84;5137872;27;20050;-85
2022/10/17 09:57:59;;;;;;;20.73;14.63;;;;;;;22.29;57.91;102414.00;5137715;27;20046;-83
2022/10/17 10:00:31;;;;;;;19.08;15.70;;;;;;;22.28;57.92;102415.84;5138748;27;20498;-81
2022/10/17 10:03:22;;;;;;;20.17;16.70;;;;;;;22.29;57.89;102419.41;5119622;27;20051;-86
2022/10/17 10:06:06;;;;;;;19.83;15.32;;;;;;;22.28;57.86;102413.16;5137545;27;20069;-86
2022/10/17 10:08:50;;;;;;;24.70;16.30;;;;;;;22.29;57.84;102414.88;5118232;27;20054;-83
2022/10/17 10:11:18;;;;;;;;;;;;;;;22.30;57.89;102410.34;5137762;27;20046;-80
2022/10/17 10:13:48;;;;;;;19.45;16.17;;;;;;;22.30;57.87;102418.44;5137411;27;19988;-81
2022/10/17 10:16:28;;;;;;;19.00;16.15;;;;;;;22.30;57.89;102419.28;5136836;27;20050;-82
2022/10/17 10:18:56;;;;;;;20.13;17.88;;;;;;;22.31;57.83;102417.44;5137061;27;20050;-82
2022/10/17 10:21:25;;;;;;;20.45;17.20;;;;;;;22.31;57.73;102412.03;5137600;27;20043;-78
2022/10/17 10:24:04;;;;;;;21.13;17.10;;;;;;;22.30;57.85;102410.34;5137211;27;20051;-87
2022/10/17 10:26:37;;;;;;;20.35;16.38;;;;;;;22.32;57.85;102411.06;5118062;27;20063;-80
2022/10/17 10:29:19;;;;;;;21.05;16.98;;;;;;;22.32;57.90;102411.06;5137353;27;20039;-83
2022/10/17 10:31:48;;;;;;;22.60;18.27;;;;;;;22.32;57.99;102413.75;5136742;27;20049;-81
2022/10/17 10:34:15;;;;;;;19.05;16.48;;;;;;;22.32;57.98;102403.84;5136419;27;20043;-81
2022/10/17 10:36:49;;;;;;;19.75;17.15;;;;;;;22.34;58.00;102411.81;5117669;27;20055;-86
2022/10/17 10:39:29;;;;;;;21.50;17.00;;;;;;;22.34;57.97;102409.13;5118749;27;20524;-82
2022/10/17 10:41:58;;;;;;;23.52;18.17;;;;;;;22.34;57.91;102401.88;5136968;27;20043;-82
2022/10/17 10:44:29;;;;;;;21.98;17.52;;;;;;;22.35;57.78;102408.16;5118528;27;20410;-81
2022/10/17 10:47:27;;;;;;;19.13;15.93;;;;;;;22.35;57.82;102405.44;5136772;27;20050;-78
2022/10/17 10:50:16;;;;;;;19.92;16.55;;;;;;;22.35;57.84;102402.75;5116129;27;20051;-86
2022/10/17 10:53:04;;;;;;;20.90;16.95;;;;;;;22.35;57.94;102402.75;5136555;27;20395;-78
2022/10/17 10:55:39;;;;;;;18.73;16.13;;;;;;;22.36;57.94;102401.75;5136326;27;20066;-84
2022/10/17 10:58:26;;;;;;;18.10;16.23;;;;;;;22.36;57.87;102401.75;5136663;27;20044;-81
2022/10/17 11:00:56;;;;;;;21.00;16.98;;;;;;;22.36;57.91;102393.66;5136164;27;20058;-81
2022/10/17 11:03:40;;;;;;;20.38;16.55;;;;;;;22.37;58.61;102395.41;5117636;27;20046;-81
2022/10/17 11:06:20;;;;;;;19.63;16.33;;;;;;;22.37;57.98;102382.78;5101731;27;20051;-86
2022/10/17 11:09:01;;;;;;;22.08;15.05;;;;;;;22.38;57.85;102383.63;5136908;27;20054;-81
2022/10/17 11:11:37;;;;;;;16.95;15.13;;;;;;;22.38;58.05;102391.72;5100617;27;20047;-85
2022/10/17 11:14:30;;;;;;;18.92;16.17;;;;;;;22.39;57.91;102382.66;5117825;27;20070;-80
2022/10/17 11:17:22;;;;;;;18.27;16.30;;;;;;;22.38;58.09;102381.81;5136226;27;20381;-82
2022/10/17 11:20:02;;;;;;;23.02;16.55;;;;;;;22.38;58.91;102381.81;5136197;27;20047;-87
2022/10/17 11:22:35;;;;;;;19.85;17.52;;;;;;;22.37;58.85;102385.47;5117971;27;20051;-89
2022/10/17 11:25:32;;;;;;;19.63;16.95;;;;;;;22.38;59.79;102378.25;5137113;27;20046;-89
2022/10/17 11:28:00;;;;;;;21.90;15.93;;;;;;;22.39;60.04;102377.25;5118253;28;20067;-89
2022/10/17 11:31:05;;;;;;;19.20;17.17;;;;;;;22.37;60.86;102372.00;5102020;27;20051;-88
2022/10/17 11:33:58;;;;;;;19.48;15.98;;;;;;;22.37;61.42;102379.22;5119812;28;20291;-88
2022/10/17 11:36:29;;;;;;;22.75;15.95;;;;;;;22.37;61.55;102371.13;5137961;28;20042;-80
2022/10/17 11:39:03;;;;;;;20.17;16.58;;;;;;;22.37;61.70;102371.13;5136763;28;20046;-78
2022/10/17 11:41:45;;;;;;;21.20;16.80;;;;;;;22.38;61.87;102375.53;5118968;28;20043;-86
2022/10/17 11:44:35;;;;;;;17.80;15.68;;;;;;;22.35;61.98;102367.66;5136628;28;20047;-86